Mitchell, SD (57301)

1:43 PM CDT on September 01, 2014 (GMT -0500)
Pleasant Hills | Change Station
CLOSE
Current Station
Personal Weather Station
Location: Mitchell, SD
Elevation: 1285 ft
Nearby Weather Stations

Elev 1285 ft 43.73 °N, 98.01 °W | Updated 3 minutes ago

Clear
Clear
76.2 °F
Feels Like 78 °F
N
2.2
Wind Variable Wind from West
Gusts 3.8 mph

Today
High -- | Low -- °F
--% Chance of Precip.
Yesterday
High -- | Low -- °F
Precip. -- in
6:55 AM 8:07 PM
Waxing Crescent, 43% visible
Pressure 29.84 in
Visibility 10.0 miles
Clouds Clear
Heat Index 78 °F
Dew Point 60 °F
Humidity 57%
Rainfall 0.20 in
Snow Depth Not available.
UV 8 out of 12
Pollen 8.60 out of 12
Air Quality Not available.
Flu Activity Not available.
METAR KMHE 011753Z AUTO 33009KT 10SM CLR 23/14 A2986 RMK AO2 SLP104 6//// T02280144 10233 20150 50012 $

More Conditions Fewer Conditions

Pressure 29.84 in
Visibility 10.0 miles
Clouds Clear
Heat Index 78 °F
Dew Point 60 °F
Humidity 57%
Rainfall 0.20 in
Snow Depth Not available.
UV 8 out of 12
Pollen 8.60 out of 12
Air Quality Not available.
Flu Activity Not available.
METAR KMHE 011753Z AUTO 33009KT 10SM CLR 23/14 A2986 RMK AO2 SLP104 6//// T02280144 10233 20150 50012 $

More Conditions Fewer Conditions

10-Day Weather Forecast

Almanac

Astronomy

Sep. 01, 2014 Rise Set
Actual Time 6:55 AM CDT 8:07 PM CDT
Civil Twilight 6:26 AM CDT 8:37 PM CDT
Nautical Twilight 5:50 AM CDT 9:12 PM CDT
Astronomical Twilight 5:13 AM CDT 9:49 PM CDT
Moon 1:55 PM CDT 11:56 PM CDT
Length of Visible Light 14h 10m
Length of Day
13h 11m
Tomorrow will be 2m 53s shorter.
Waxing Crescent, 43% of the Moon is Illuminated
Today
Waxing Crescent
Sep 2
First Quarter
Sep 8
Full
Sep 15
Last Quarter
Sep 24
New

Today's Extremes

State Highs State Lows

Community

WunderPhotos

Upload Photos

1,749,359 photos uploaded!

Nearby

Snow Depth

Station Depth Elevation
Blind Park 0 in 6890 ft

Earthquake Activity

City Distance Mag. Time & Date
No recent earthquake activity has been reported nearby.
Minimum magnitude displayed is 2.5.

Coastal Water Temperatures

Place Temperature
No Stations Reporting

Nearby Weather Stations